Time;durP1;ratioP1;P1;durP2;ratioP2;P2;SDS_P1;SDS_P2;PMS_P1;PMS_P2;Temp;Humidity;BMP_temperature;BMP_pressure;BME280_temperature;BME280_humidity;BME280_pressure;Samples;Min_cycle;Max_cycle;Signal;HPM_P1;HPM_P2
2021/03/31 00:00:30;;;;;;;5.67;4.30;;;17.90;31.20;;;;;;5089291;28;20640;-53
2021/03/31 00:02:58;;;;;;;4.87;4.40;;;17.80;31.20;;;;;;5066174;28;20665;-50
2021/03/31 00:05:25;;;;;;;9.50;4.43;;;17.80;31.10;;;;;;5087609;28;20697;-50
2021/03/31 00:07:53;;;;;;;4.83;4.43;;;17.80;31.20;;;;;;5084553;28;20699;-50
2021/03/31 00:10:22;;;;;;;7.47;4.20;;;17.70;31.20;;;;;;5082120;28;20624;-50
2021/03/31 00:12:49;;;;;;;4.80;4.30;;;17.80;31.40;;;;;;5089141;28;20722;-50
2021/03/31 00:15:16;;;;;;;6.40;4.27;;;17.70;31.40;;;;;;5089446;28;20677;-50
2021/03/31 00:17:43;;;;;;;5.63;3.90;;;17.70;31.50;;;;;;5084619;28;21196;-51
2021/03/31 00:20:12;;;;;;;10.43;4.27;;;17.60;31.70;;;;;;5090785;28;20662;-50
2021/03/31 00:22:39;;;;;;;4.87;4.23;;;17.60;32.10;;;;;;5076127;28;20636;-50
2021/03/31 00:25:08;;;;;;;5.40;3.10;;;17.50;32.30;;;;;;5089828;28;20701;-49
2021/03/31 00:27:35;;;;;;;7.30;3.43;;;17.40;32.30;;;;;;5087354;28;20991;-51
2021/03/31 00:30:03;;;;;;;6.70;4.20;;;17.40;32.60;;;;;;5087413;28;20639;-50
2021/03/31 00:32:30;;;;;;;10.03;4.87;;;17.30;32.50;;;;;;5086223;28;20698;-50
2021/03/31 00:34:57;;;;;;;4.00;3.60;;;17.30;32.70;;;;;;5087195;28;20636;-50
2021/03/31 00:37:24;;;;;;;11.47;5.53;;;17.20;32.80;;;;;;5087922;28;20677;-50
2021/03/31 00:39:51;;;;;;;4.50;4.10;;;17.20;32.60;;;;;;5085557;28;20666;-50
2021/03/31 00:42:18;;;;;;;3.73;3.40;;;17.20;32.50;;;;;;5084925;28;20624;-50
2021/03/31 00:44:45;;;;;;;8.20;4.50;;;17.20;32.90;;;;;;5086894;28;20666;-50
2021/03/31 00:47:12;;;;;;;4.87;3.73;;;17.10;32.90;;;;;;5066584;28;20632;-50
2021/03/31 00:49:39;;;;;;;4.70;3.77;;;17.10;32.90;;;;;;5085499;28;20701;-50
2021/03/31 00:52:06;;;;;;;4.87;3.60;;;17.10;32.70;;;;;;5088832;28;20714;-50
2021/03/31 00:54:36;;;;;;;5.87;4.33;;;17.00;32.70;;;;;;5088541;28;21022;-50
2021/03/31 00:57:03;;;;;;;4.20;3.83;;;17.00;32.90;;;;;;5088723;28;20640;-50
2021/03/31 00:59:31;;;;;;;6.10;4.60;;;16.90;33.00;;;;;;5085686;28;20629;-50
2021/03/31 01:01:58;;;;;;;4.13;3.43;;;17.00;34.80;;;;;;5087518;28;20663;-50
2021/03/31 01:04:25;;;;;;;5.53;3.57;;;16.90;33.90;;;;;;5067440;28;20664;-50
2021/03/31 01:06:51;;;;;;;4.60;4.20;;;16.90;33.40;;;;;;5083700;28;20636;-50
2021/03/31 01:09:18;;;;;;;7.03;3.80;;;16.80;33.10;;;;;;5081803;28;20682;-50
2021/03/31 01:11:49;;;;;;;6.00;3.47;;;16.80;32.90;;;;;;5084953;28;20701;-51
2021/03/31 01:14:19;;;;;;;6.07;3.90;;;16.70;33.30;;;;;;5087243;28;20730;-50
2021/03/31 01:16:48;;;;;;;6.40;4.20;;;16.70;33.70;;;;;;5088165;28;20628;-50
2021/03/31 01:19:50;;;;;;;3.53;3.23;;;16.70;33.90;;;;;;5085430;28;21077;-50
2021/03/31 01:22:48;;;;;;;4.90;3.67;;;16.60;33.60;;;;;;5087396;28;20692;-50
2021/03/31 01:25:16;;;;;;;7.40;4.97;;;16.60;33.50;;;;;;5088251;28;20681;-50
2021/03/31 01:28:19;;;;;;;7.63;4.00;;;16.50;33.50;;;;;;5084382;28;20971;-50
2021/03/31 01:30:52;;;;;;;7.93;4.20;;;16.50;33.40;;;;;;5045492;28;20778;-50
2021/03/31 01:33:58;;;;;;;8.97;4.10;;;16.40;33.40;;;;;;5082896;28;20754;-51
2021/03/31 01:36:26;;;;;;;6.73;4.30;;;16.40;33.50;;;;;;5071366;28;20640;-51
2021/03/31 01:38:54;;;;;;;7.33;4.50;;;16.30;33.50;;;;;;5088598;28;21009;-51
2021/03/31 01:41:20;;;;;;;6.00;3.93;;;16.30;33.70;;;;;;5088123;28;20620;-51
2021/03/31 01:43:48;;;;;;;5.13;4.23;;;16.20;33.70;;;;;;5086225;28;20721;-50
2021/03/31 01:46:15;;;;;;;10.03;4.23;;;16.20;34.20;;;;;;5089066;28;20628;-50
2021/03/31 01:48:41;;;;;;;5.13;4.10;;;16.10;34.00;;;;;;5088209;28;20628;-50
2021/03/31 01:51:09;;;;;;;6.67;3.77;;;16.10;34.20;;;;;;5069536;28;20652;-50
2021/03/31 01:53:36;;;;;;;6.30;4.53;;;16.10;34.30;;;;;;5089888;28;20741;-50
2021/03/31 01:56:03;;;;;;;5.27;3.70;;;16.10;34.30;;;;;;5087975;28;20629;-50
2021/03/31 01:58:31;;;;;;;4.40;3.43;;;16.10;34.40;;;;;;5089408;28;20632;-50
2021/03/31 02:00:58;;;;;;;4.70;3.43;;;16.00;34.20;;;;;;5090722;28;20620;-50
2021/03/31 02:03:25;;;;;;;8.50;4.70;;;16.00;34.20;;;;;;5087356;28;21235;-50
2021/03/31 02:05:51;;;;;;;4.70;3.77;;;15.90;34.80;;;;;;5090784;28;20651;-50
2021/03/31 02:08:18;;;;;;;6.20;3.80;;;15.90;34.50;;;;;;5087120;28;20686;-51
2021/03/31 02:10:46;;;;;;;5.37;4.87;;;15.80;34.60;;;;;;5088434;28;20631;-50
2021/03/31 02:13:13;;;;;;;4.60;4.20;;;15.80;34.60;;;;;;5089610;28;20659;-51
2021/03/31 02:15:40;;;;;;;5.77;4.00;;;15.80;34.60;;;;;;5085272;28;20677;-50
2021/03/31 02:18:08;;;;;;;9.83;5.60;;;15.70;34.60;;;;;;5072921;28;20624;-51
2021/03/31 02:20:35;;;;;;;5.60;4.37;;;15.60;35.20;;;;;;5089381;28;21018;-51
2021/03/31 02:23:01;;;;;;;8.07;4.43;;;15.60;35.00;;;;;;5089100;28;20656;-51
2021/03/31 02:25:28;;;;;;;6.00;4.80;;;15.40;35.00;;;;;;5071897;28;20624;-51
2021/03/31 02:27:56;;;;;;;8.17;4.40;;;15.40;35.30;;;;;;5091801;28;20616;-50
2021/03/31 02:30:24;;;;;;;6.93;4.40;;;15.30;35.30;;;;;;5090735;28;20689;-51
2021/03/31 02:32:53;;;;;;;10.37;4.40;;;15.30;35.30;;;;;;5064927;28;20990;-50
2021/03/31 02:35:21;;;;;;;7.80;5.90;;;15.30;35.50;;;;;;5086990;28;20678;-50
2021/03/31 02:37:49;;;;;;;6.20;4.40;;;15.30;35.90;;;;;;5089636;28;20678;-51
2021/03/31 02:40:17;;;;;;;6.87;5.27;;;15.20;35.30;;;;;;5090774;28;20706;-50
2021/03/31 02:42:44;;;;;;;6.93;5.80;;;15.10;35.20;;;;;;5087239;28;20655;-50
2021/03/31 02:45:14;;;;;;;14.67;5.80;;;15.10;35.40;;;;;;5089853;28;20629;-51
2021/03/31 02:47:41;;;;;;;6.97;5.47;;;15.00;35.50;;;;;;5085741;28;20681;-50
2021/03/31 02:50:09;;;;;;;6.23;4.07;;;14.80;35.50;;;;;;5089287;28;20632;-50
2021/03/31 02:52:36;;;;;;;4.90;4.40;;;14.90;35.90;;;;;;5087013;28;20648;-50
2021/03/31 02:55:03;;;;;;;5.40;4.23;;;14.90;35.80;;;;;;5087876;28;20636;-50
2021/03/31 02:57:30;;;;;;;6.27;5.23;;;14.90;35.90;;;;;;5086152;28;20669;-50
2021/03/31 02:59:56;;;;;;;7.20;4.83;;;14.80;35.80;;;;;;5086755;28;20697;-49
2021/03/31 03:02:24;;;;;;;10.30;5.27;;;14.90;36.00;;;;;;5087325;28;20637;-50
2021/03/31 03:04:51;;;;;;;9.30;4.43;;;14.70;35.90;;;;;;5086695;28;20728;-50
2021/03/31 03:07:18;;;;;;;6.47;5.33;;;14.60;36.10;;;;;;5081776;28;20725;-51
2021/03/31 03:09:46;;;;;;;6.20;5.60;;;14.50;36.40;;;;;;5072288;28;20635;-51
2021/03/31 03:12:13;;;;;;;8.53;4.83;;;14.40;36.60;;;;;;5086335;28;21144;-50
2021/03/31 03:14:40;;;;;;;7.80;4.70;;;14.40;37.00;;;;;;5087219;28;20659;-50
2021/03/31 03:17:07;;;;;;;9.30;5.90;;;14.40;37.30;;;;;;5090271;28;20636;-50
2021/03/31 03:19:35;;;;;;;10.17;8.13;;;14.40;37.30;;;;;;5086236;28;20617;-50
2021/03/31 03:22:02;;;;;;;15.90;12.90;;;14.50;37.30;;;;;;5086711;28;20632;-49
2021/03/31 03:24:29;;;;;;;24.30;15.70;;;14.50;37.30;;;;;;5090259;28;21259;-50
2021/03/31 03:26:56;;;;;;;25.00;16.90;;;14.50;37.10;;;;;;5087197;28;21235;-50
2021/03/31 03:29:23;;;;;;;22.27;16.97;;;14.60;37.20;;;;;;5088577;28;21057;-49
2021/03/31 03:31:50;;;;;;;26.10;18.53;;;14.50;37.00;;;;;;5087602;28;20657;-50
2021/03/31 03:34:17;;;;;;;24.47;16.60;;;14.50;37.10;;;;;;5089918;28;20686;-50
2021/03/31 03:36:45;;;;;;;22.60;16.87;;;14.40;37.10;;;;;;5089218;28;21221;-50
2021/03/31 03:39:14;;;;;;;22.40;16.93;;;14.40;37.60;;;;;;5088636;28;21291;-50
2021/03/31 03:41:40;;;;;;;22.60;15.57;;;14.40;37.30;;;;;;5087606;28;20981;-49
2021/03/31 03:44:07;;;;;;;17.60;13.03;;;14.40;37.30;;;;;;5069505;28;20674;-50
2021/03/31 03:46:34;;;;;;;17.63;14.50;;;14.30;37.40;;;;;;5087011;28;20632;-49
2021/03/31 03:49:02;;;;;;;18.00;13.33;;;14.30;37.30;;;;;;5086346;28;20625;-49
2021/03/31 03:51:29;;;;;;;15.43;9.90;;;14.30;37.50;;;;;;5089733;28;20684;-49
2021/03/31 03:53:57;;;;;;;10.43;8.67;;;14.30;37.50;;;;;;5089395;28;20698;-49
2021/03/31 03:56:24;;;;;;;9.90;8.43;;;14.30;37.40;;;;;;5085892;28;20628;-49
2021/03/31 03:58:51;;;;;;;8.93;7.17;;;14.20;37.40;;;;;;5088783;28;20677;-49
2021/03/31 04:01:17;;;;;;;15.17;8.67;;;14.20;37.50;;;;;;5085846;28;20706;-50
2021/03/31 04:03:44;;;;;;;10.87;7.07;;;14.10;37.60;;;;;;5085665;28;21052;-50
2021/03/31 04:06:11;;;;;;;11.30;7.23;;;14.10;37.90;;;;;;5085521;28;20755;-49
2021/03/31 04:08:38;;;;;;;11.33;7.30;;;14.10;37.90;;;;;;5087876;28;20715;-50
2021/03/31 04:11:06;;;;;;;11.23;6.40;;;14.10;38.00;;;;;;5086221;28;20681;-50
2021/03/31 04:13:32;;;;;;;8.63;6.37;;;14.10;38.10;;;;;;5087313;28;20702;-50
2021/03/31 04:16:01;;;;;;;10.17;7.70;;;14.10;38.20;;;;;;5085244;28;21246;-50
2021/03/31 04:18:29;;;;;;;13.07;6.13;;;14.10;38.20;;;;;;5087392;28;20616;-50
2021/03/31 04:20:57;;;;;;;10.13;6.17;;;14.10;38.40;;;;;;5083716;28;20674;-50
2021/03/31 04:23:23;;;;;;;6.73;6.03;;;14.10;38.50;;;;;;5086302;28;20708;-50
2021/03/31 04:25:50;;;;;;;18.00;6.33;;;14.00;38.40;;;;;;5087950;28;20687;-50
2021/03/31 04:28:18;;;;;;;6.07;5.47;;;13.90;38.40;;;;;;5085184;28;20720;-50
2021/03/31 04:30:45;;;;;;;7.67;5.50;;;13.90;38.70;;;;;;5088727;28;20617;-50
2021/03/31 04:33:11;;;;;;;6.07;5.27;;;13.90;38.90;;;;;;5088350;28;21279;-50
2021/03/31 04:35:38;;;;;;;12.67;6.10;;;13.90;39.30;;;;;;5084732;28;20638;-50
2021/03/31 04:38:08;;;;;;;8.90;5.67;;;13.90;38.90;;;;;;5086984;28;20741;-50
2021/03/31 04:40:54;;;;;;;7.40;4.67;;;13.90;39.00;;;;;;5088660;28;20628;-50
2021/03/31 04:43:23;;;;;;;9.13;5.00;;;13.90;38.90;;;;;;5088210;28;20667;-51
2021/03/31 04:45:50;;;;;;;8.30;6.13;;;13.80;38.90;;;;;;5089780;28;20642;-50
2021/03/31 04:48:17;;;;;;;12.13;4.90;;;13.80;39.00;;;;;;5088686;28;20629;-49
2021/03/31 04:50:43;;;;;;;6.90;4.83;;;13.80;39.00;;;;;;5085453;28;20654;-49
2021/03/31 04:53:10;;;;;;;7.53;5.00;;;13.70;38.80;;;;;;5086199;28;21232;-49
2021/03/31 04:55:37;;;;;;;9.73;6.10;;;13.60;38.90;;;;;;5082903;28;20696;-49
2021/03/31 04:58:04;;;;;;;18.43;6.40;;;13.60;39.10;;;;;;5084972;28;20632;-50
2021/03/31 05:00:31;;;;;;;8.23;5.67;;;13.60;39.20;;;;;;5086730;28;20636;-50
2021/03/31 05:02:58;;;;;;;6.07;5.00;;;13.60;39.20;;;;;;5079137;28;20649;-50
2021/03/31 05:05:25;;;;;;;13.33;6.13;;;13.60;39.30;;;;;;5080321;28;20641;-50
2021/03/31 05:07:52;;;;;;;10.07;5.63;;;13.50;39.40;;;;;;5084467;28;20684;-50
2021/03/31 05:10:18;;;;;;;8.80;4.33;;;13.50;39.50;;;;;;5082328;28;20680;-50
2021/03/31 05:12:45;;;;;;;8.13;5.30;;;13.50;39.60;;;;;;5083969;28;20664;-50
2021/03/31 05:15:12;;;;;;;6.90;5.10;;;13.50;39.80;;;;;;5087311;28;20624;-49
2021/03/31 05:17:40;;;;;;;6.20;5.20;;;13.50;39.90;;;;;;5085012;28;20636;-49
2021/03/31 05:20:08;;;;;;;9.07;5.90;;;13.50;40.10;;;;;;5084978;28;20705;-48
2021/03/31 05:22:34;;;;;;;6.37;5.07;;;13.50;40.40;;;;;;5092755;28;20636;-48
2021/03/31 05:25:01;;;;;;;7.57;5.20;;;13.40;40.50;;;;;;5073205;28;20628;-48
2021/03/31 05:27:28;;;;;;;5.87;5.20;;;13.30;40.90;;;;;;5091389;28;20631;-48
2021/03/31 05:29:55;;;;;;;11.30;6.13;;;13.20;41.10;;;;;;5090495;28;20632;-49
2021/03/31 05:32:21;;;;;;;15.30;5.97;;;13.10;41.10;;;;;;5070073;28;21223;-49
2021/03/31 05:34:49;;;;;;;7.17;6.47;;;13.10;41.00;;;;;;5088989;28;20637;-49
2021/03/31 05:37:16;;;;;;;11.97;6.13;;;13.10;40.90;;;;;;5082370;28;20745;-49
2021/03/31 05:39:43;;;;;;;16.57;6.23;;;13.10;41.00;;;;;;5090215;28;20632;-50
2021/03/31 05:42:10;;;;;;;19.63;6.73;;;13.00;41.20;;;;;;5088177;28;20696;-48
2021/03/31 05:44:37;;;;;;;11.73;5.97;;;13.00;41.30;;;;;;5086353;28;20667;-50
2021/03/31 05:47:04;;;;;;;12.70;6.90;;;13.00;41.50;;;;;;5085485;28;20641;-50
2021/03/31 05:49:31;;;;;;;13.57;7.00;;;13.00;41.50;;;;;;5082434;28;21169;-51
2021/03/31 05:51:59;;;;;;;8.23;5.80;;;13.00;41.70;;;;;;5087029;28;21220;-51
2021/03/31 05:54:26;;;;;;;10.77;6.93;;;13.00;41.80;;;;;;5088235;28;20695;-51
2021/03/31 05:56:52;;;;;;;10.40;6.47;;;13.10;41.80;;;;;;5092750;28;20629;-51
2021/03/31 05:59:19;;;;;;;18.27;6.33;;;13.10;41.70;;;;;;5092743;28;21057;-51
2021/03/31 06:01:46;;;;;;;17.00;7.80;;;13.20;41.70;;;;;;5075195;28;20669;-51
2021/03/31 06:04:15;;;;;;;13.43;6.27;;;13.30;41.70;;;;;;5093415;28;20662;-50
2021/03/31 06:06:41;;;;;;;10.37;7.33;;;13.30;41.80;;;;;;5081942;28;20633;-50
2021/03/31 06:09:10;;;;;;;13.10;7.40;;;13.50;41.70;;;;;;5086450;28;20741;-50
2021/03/31 06:11:47;;;;;;;9.80;6.57;;;13.60;41.10;;;;;;5085752;28;20631;-51
2021/03/31 06:14:14;;;;;;;10.43;8.33;;;13.70;40.70;;;;;;5070646;28;20786;-51
2021/03/31 06:16:45;;;;;;;13.50;6.73;;;13.80;40.40;;;;;;5084586;28;20631;-52
2021/03/31 06:19:15;;;;;;;13.33;7.60;;;14.00;40.20;;;;;;5086755;28;20767;-52
2021/03/31 06:21:44;;;;;;;10.33;6.80;;;14.10;40.00;;;;;;5087702;28;21185;-50
2021/03/31 06:24:20;;;;;;;12.40;7.60;;;14.20;39.90;;;;;;5086037;28;20662;-51
2021/03/31 06:26:47;;;;;;;8.00;7.20;;;14.20;39.90;;;;;;5090263;28;21054;-51
2021/03/31 06:29:14;;;;;;;10.10;6.90;;;14.30;39.70;;;;;;5089121;28;21412;-51
2021/03/31 06:31:42;;;;;;;12.33;7.37;;;14.40;40.10;;;;;;5085213;28;20644;-53
2021/03/31 06:34:09;;;;;;;13.33;8.60;;;14.50;39.40;;;;;;5081459;28;20972;-52
2021/03/31 06:36:38;;;;;;;8.07;7.27;;;14.70;39.20;;;;;;5087801;28;20635;-54
2021/03/31 06:39:25;;;;;;;12.03;7.87;;;14.80;41.00;;;;;;5091872;28;21029;-53
2021/03/31 06:41:53;;;;;;;21.33;10.70;;;15.00;39.60;;;;;;5088651;28;20635;-52
2021/03/31 06:44:40;;;;;;;12.10;8.37;;;15.20;38.90;;;;;;5091276;28;20744;-51
2021/03/31 06:47:13;;;;;;;8.67;7.33;;;15.50;40.30;;;;;;5088373;28;20651;-51
2021/03/31 06:49:40;;;;;;;9.60;7.00;;;15.70;39.10;;;;;;5091506;28;20628;-52
2021/03/31 06:52:08;;;;;;;9.80;7.03;;;15.90;38.80;;;;;;5086764;28;21235;-52
2021/03/31 06:54:42;;;;;;;8.20;6.80;;;16.00;38.20;;;;;;5092180;28;20705;-52
2021/03/31 06:57:09;;;;;;;8.40;7.60;;;16.20;37.40;;;;;;5085336;28;20632;-51
2021/03/31 06:59:36;;;;;;;9.17;7.77;;;16.40;38.10;;;;;;5092230;28;20651;-53
2021/03/31 07:02:04;;;;;;;11.00;7.70;;;16.60;39.00;;;;;;5087250;28;21203;-52
2021/03/31 07:04:31;;;;;;;12.60;7.50;;;16.70;37.80;;;;;;5091579;28;21220;-51
2021/03/31 07:06:59;;;;;;;11.43;8.17;;;16.80;36.60;;;;;;5081539;28;20632;-52
2021/03/31 07:09:26;;;;;;;11.83;7.87;;;16.90;36.60;;;;;;5085693;28;20624;-52
2021/03/31 07:11:53;;;;;;;11.40;6.93;;;17.00;36.00;;;;;;5085665;28;20694;-52
2021/03/31 07:14:21;;;;;;;8.47;7.67;;;17.10;37.00;;;;;;5085772;28;21192;-53
2021/03/31 07:16:48;;;;;;;8.67;7.50;;;17.20;36.50;;;;;;5079656;28;20640;-52
2021/03/31 07:19:24;;;;;;;12.83;8.30;;;17.30;37.50;;;;;;5086046;28;20765;-52
2021/03/31 07:21:51;;;;;;;15.10;8.23;;;17.30;36.80;;;;;;5090375;28;20646;-53
2021/03/31 07:24:18;;;;;;;11.60;8.03;;;17.40;37.20;;;;;;5087544;28;20698;-54
2021/03/31 07:26:45;;;;;;;12.77;8.10;;;17.50;35.80;;;;;;5081231;28;21243;-51
2021/03/31 07:29:13;;;;;;;10.10;8.57;;;17.60;35.90;;;;;;5087795;28;20636;-54
2021/03/31 07:31:42;;;;;;;15.20;9.17;;;17.70;35.80;;;;;;5072630;28;20629;-52
2021/03/31 07:34:16;;;;;;;8.87;8.03;;;17.80;36.60;;;;;;5091130;28;20682;-52
2021/03/31 07:36:45;;;;;;;9.70;8.70;;;17.90;36.10;;;;;;5091162;28;20632;-52
2021/03/31 07:39:12;;;;;;;9.63;7.20;;;18.00;35.40;;;;;;5090764;28;20628;-52
2021/03/31 07:41:39;;;;;;;10.57;9.47;;;18.20;36.00;;;;;;5091346;28;21007;-52
2021/03/31 07:44:07;;;;;;;14.77;8.73;;;18.40;35.90;;;;;;5090008;28;20717;-52
2021/03/31 07:46:36;;;;;;;10.50;9.40;;;18.40;33.80;;;;;;5091247;28;20624;-51
2021/03/31 07:49:03;;;;;;;9.77;8.40;;;18.40;33.90;;;;;;5089740;28;20698;-50
2021/03/31 07:51:31;;;;;;;9.90;9.00;;;18.50;34.80;;;;;;5091102;28;21044;-50
2021/03/31 07:53:58;;;;;;;12.13;10.20;;;18.60;34.70;;;;;;5089369;28;20713;-51
2021/03/31 07:56:32;;;;;;;11.77;9.80;;;18.80;34.90;;;;;;5086865;28;21202;-50
2021/03/31 07:59:11;;;;;;;11.47;10.33;;;18.80;34.20;;;;;;5089806;28;20687;-51
2021/03/31 08:01:40;;;;;;;10.87;9.53;;;18.80;33.80;;;;;;5088145;28;20693;-50
2021/03/31 08:04:07;;;;;;;17.43;10.17;;;18.90;34.90;;;;;;5090158;28;20644;-50
2021/03/31 08:06:35;;;;;;;12.00;10.90;;;18.90;35.30;;;;;;5085531;28;20616;-52
2021/03/31 08:09:06;;;;;;;12.63;9.60;;;18.90;34.30;;;;;;5080824;28;20687;-51
2021/03/31 08:12:03;;;;;;;14.13;11.57;;;18.90;33.70;;;;;;5088420;28;21233;-51
2021/03/31 08:14:43;;;;;;;11.50;10.40;;;19.00;33.70;;;;;;5086598;28;20722;-52
2021/03/31 08:17:12;;;;;;;14.73;10.73;;;19.10;33.60;;;;;;5088446;28;20689;-51
2021/03/31 08:19:41;;;;;;;15.23;12.57;;;19.10;33.40;;;;;;5090272;28;20678;-53
2021/03/31 08:22:28;;;;;;;15.17;12.33;;;19.10;32.90;;;;;;5090131;28;20705;-51
2021/03/31 08:24:56;;;;;;;13.87;12.23;;;19.30;33.10;;;;;;5089916;28;20624;-52
2021/03/31 08:27:23;;;;;;;14.03;12.63;;;19.40;32.50;;;;;;5090541;28;20958;-52
2021/03/31 08:29:54;;;;;;;17.27;12.00;;;19.40;32.40;;;;;;5089809;28;20642;-52
2021/03/31 08:32:23;;;;;;;16.37;12.33;;;19.50;32.90;;;;;;5075807;28;20629;-53
2021/03/31 08:34:50;;;;;;;23.60;13.30;;;19.60;33.40;;;;;;5089928;28;20655;-52
2021/03/31 08:37:28;;;;;;;14.97;11.97;;;19.60;32.60;;;;;;5090182;28;21208;-52
2021/03/31 08:40:28;;;;;;;15.57;13.53;;;19.70;33.90;;;;;;5091132;28;20725;-50
2021/03/31 08:42:58;;;;;;;17.20;14.20;;;19.60;32.90;;;;;;5089343;28;21030;-50
2021/03/31 08:45:28;;;;;;;14.40;12.90;;;19.60;32.50;;;;;;5090618;28;20673;-49
2021/03/31 08:47:57;;;;;;;13.67;12.20;;;19.80;32.60;;;;;;5089002;28;20632;-51
2021/03/31 08:50:25;;;;;;;13.90;12.60;;;20.00;32.50;;;;;;5078956;28;20620;-51
2021/03/31 08:52:58;;;;;;;15.07;12.93;;;20.10;32.20;;;;;;5082569;28;20777;-54
2021/03/31 08:55:29;;;;;;;15.60;14.00;;;20.30;32.00;;;;;;5084132;28;21187;-52
2021/03/31 08:57:56;;;;;;;18.93;14.60;;;20.50;31.40;;;;;;5091388;28;20624;-52
2021/03/31 09:00:23;;;;;;;15.30;13.70;;;20.70;31.00;;;;;;5091975;28;20632;-52
2021/03/31 09:02:50;;;;;;;15.70;14.13;;;20.70;31.00;;;;;;5087427;28;20655;-53
2021/03/31 09:05:17;;;;;;;19.77;15.53;;;20.70;31.10;;;;;;5094190;28;21435;-53
2021/03/31 09:07:44;;;;;;;20.83;16.07;;;20.80;30.70;;;;;;5083788;28;20625;-52
2021/03/31 09:10:12;;;;;;;18.60;14.97;;;20.90;30.60;;;;;;5068259;28;20654;-53
2021/03/31 09:12:39;;;;;;;17.20;15.27;;;20.90;30.50;;;;;;5088361;28;20699;-53
2021/03/31 09:15:06;;;;;;;17.50;15.77;;;21.10;30.50;;;;;;5094378;28;20766;-53
2021/03/31 09:17:34;;;;;;;21.00;16.57;;;21.20;30.20;;;;;;5094040;28;20628;-52
2021/03/31 09:20:01;;;;;;;18.60;16.70;;;21.30;30.20;;;;;;5094839;28;20636;-52
2021/03/31 09:22:29;;;;;;;18.87;15.13;;;21.40;30.10;;;;;;5094689;28;20624;-51
2021/03/31 09:24:57;;;;;;;17.03;15.27;;;21.40;29.90;;;;;;5094682;28;20632;-52
2021/03/31 09:27:26;;;;;;;22.07;18.80;;;21.40;30.00;;;;;;5094507;28;20628;-52
2021/03/31 09:29:55;;;;;;;20.57;18.50;;;21.30;30.00;;;;;;5094527;28;20693;-52
2021/03/31 09:32:26;;;;;;;21.10;17.43;;;21.30;30.20;;;;;;5094341;28;20971;-53
2021/03/31 09:34:53;;;;;;;21.00;16.13;;;21.50;30.20;;;;;;5095014;28;20635;-52
2021/03/31 09:37:20;;;;;;;17.40;15.70;;;21.70;30.50;;;;;;5094198;28;20652;-53
2021/03/31 09:39:48;;;;;;;25.30;17.00;;;21.90;30.00;;;;;;5094533;28;20592;-53
2021/03/31 09:42:19;;;;;;;20.93;17.80;;;22.00;29.90;;;;;;5095061;28;20631;-52
2021/03/31 09:44:46;;;;;;;25.53;19.27;;;21.90;29.70;;;;;;5094404;28;20705;-52
2021/03/31 09:47:14;;;;;;;19.00;17.00;;;21.90;30.00;;;;;;5093380;28;20631;-52
2021/03/31 09:49:43;;;;;;;22.60;18.27;;;22.00;30.10;;;;;;5094456;28;20700;-53
2021/03/31 09:52:10;;;;;;;23.03;17.67;;;22.30;29.80;;;;;;5094197;28;20700;-52
2021/03/31 09:54:37;;;;;;;20.60;18.40;;;22.60;29.30;;;;;;5093506;28;20664;-53
2021/03/31 09:57:05;;;;;;;19.80;17.67;;;22.80;29.20;;;;;;5093934;28;20620;-52
2021/03/31 09:59:32;;;;;;;19.40;17.40;;;23.00;29.20;;;;;;5094044;28;20639;-52
2021/03/31 10:02:00;;;;;;;21.30;18.47;;;23.20;29.30;;;;;;5094123;28;20696;-53
2021/03/31 10:04:27;;;;;;;21.13;19.07;;;23.40;29.10;;;;;;5094083;28;20640;-53
2021/03/31 10:07:15;;;;;;;25.43;19.73;;;23.60;28.70;;;;;;5093181;28;20620;-52
2021/03/31 10:09:43;;;;;;;24.80;21.50;;;23.90;28.40;;;;;;5091902;28;20654;-52
2021/03/31 10:12:11;;;;;;;22.43;19.50;;;24.20;28.20;;;;;;5091541;28;20628;-52
2021/03/31 10:14:49;;;;;;;22.10;19.80;;;24.50;28.00;;;;;;5086881;28;20657;-52
2021/03/31 10:17:16;;;;;;;20.40;18.40;;;24.70;28.00;;;;;;5088253;28;20991;-53
2021/03/31 10:19:43;;;;;;;22.47;20.07;;;25.00;27.90;;;;;;5093653;28;20991;-52
2021/03/31 10:22:10;;;;;;;19.57;17.47;;;25.30;27.90;;;;;;5088844;28;20633;-51
2021/03/31 10:24:40;;;;;;;21.40;18.30;;;25.30;27.90;;;;;;5093568;28;21113;-52
2021/03/31 10:27:08;;;;;;;21.60;19.53;;;25.60;27.30;;;;;;5093696;28;21218;-53
2021/03/31 10:29:36;;;;;;;19.60;17.80;;;25.80;27.40;;;;;;5091319;28;21163;-54
2021/03/31 10:32:04;;;;;;;21.23;17.53;;;26.10;27.20;;;;;;5092998;28;20624;-52
2021/03/31 10:34:40;;;;;;;19.57;17.67;;;26.40;27.00;;;;;;5089994;28;20759;-53
2021/03/31 10:37:11;;;;;;;18.40;16.50;;;26.40;26.90;;;;;;5093683;28;20624;-53
2021/03/31 10:51:10;;;;;;;24.50;22.23;;;27.00;26.50;;;;;;5071727;28;20619;-52
2021/03/31 10:53:42;;;;;;;20.90;16.93;;;27.30;26.30;;;;;;5092928;28;20667;-55
2021/03/31 10:56:08;;;;;;;21.93;19.67;;;27.70;25.90;;;;;;5081853;28;20671;-52
2021/03/31 10:58:35;;;;;;;20.57;18.70;;;27.90;25.50;;;;;;5082457;28;20686;-53
2021/03/31 11:01:03;;;;;;;20.50;18.40;;;28.20;25.20;;;;;;5089115;28;20674;-53
2021/03/31 11:03:30;;;;;;;17.97;16.30;;;28.50;24.90;;;;;;5065122;28;20659;-51
2021/03/31 11:05:57;;;;;;;23.30;17.47;;;28.30;24.90;;;;;;5092932;28;20628;-52
2021/03/31 11:08:24;;;;;;;17.00;15.40;;;27.90;25.10;;;;;;5092506;28;20656;-53
2021/03/31 11:10:51;;;;;;;19.63;17.53;;;27.40;25.50;;;;;;5089537;28;20652;-53
2021/03/31 11:13:18;;;;;;;19.97;17.87;;;27.00;25.70;;;;;;5081036;28;21030;-53
2021/03/31 11:15:45;;;;;;;21.93;18.73;;;26.90;25.90;;;;;;5083807;28;21156;-53
2021/03/31 11:18:19;;;;;;;20.10;18.17;;;26.80;26.00;;;;;;5090480;28;20662;-53
2021/03/31 11:26:15;;;;;;;19.73;16.93;;;27.60;25.60;;;;;;5091953;28;20608;-52
2021/03/31 11:28:42;;;;;;;24.60;19.07;;;27.50;25.90;;;;;;5092306;28;20686;-53
2021/03/31 11:31:09;;;;;;;19.00;17.07;;;27.40;25.60;;;;;;5091828;28;20678;-52
2021/03/31 11:33:38;;;;;;;20.37;18.27;;;27.40;25.80;;;;;;5092207;28;20665;-54
2021/03/31 11:36:05;;;;;;;19.53;17.40;;;27.30;26.10;;;;;;5091548;28;20746;-54
2021/03/31 11:38:32;;;;;;;20.80;17.43;;;27.20;26.10;;;;;;5092123;28;20975;-54
2021/03/31 11:40:59;;;;;;;19.40;17.50;;;27.20;26.40;;;;;;5092495;28;20621;-53
2021/03/31 11:43:25;;;;;;;21.77;19.60;;;27.40;26.20;;;;;;5092252;28;20668;-54
2021/03/31 11:45:52;;;;;;;20.67;17.10;;;27.90;25.20;;;;;;5092854;28;20628;-54
2021/03/31 11:48:19;;;;;;;21.57;17.70;;;28.30;25.00;;;;;;5091296;28;20681;-56
2021/03/31 11:50:47;;;;;;;18.33;16.50;;;28.60;24.90;;;;;;5093959;28;21180;-54
2021/03/31 11:53:14;;;;;;;20.30;15.50;;;28.40;24.30;;;;;;5093572;28;21027;-54
2021/03/31 11:55:40;;;;;;;20.53;16.23;;;28.10;24.60;;;;;;5094502;28;20624;-53
2021/03/31 11:58:07;;;;;;;16.93;14.70;;;28.00;24.70;;;;;;5093437;28;20616;-53
2021/03/31 12:00:36;;;;;;;18.07;16.17;;;28.30;25.00;;;;;;5075113;28;20686;-54
2021/03/31 12:03:03;;;;;;;20.53;16.53;;;28.70;24.40;;;;;;5092424;28;20689;-55
2021/03/31 12:05:30;;;;;;;18.83;16.80;;;29.10;23.90;;;;;;5093836;28;21012;-54
2021/03/31 12:07:58;;;;;;;19.80;16.83;;;29.40;23.80;;;;;;5092001;28;20689;-53
2021/03/31 12:10:25;;;;;;;19.20;13.53;;;29.60;23.60;;;;;;5091342;28;20700;-52
2021/03/31 12:12:52;;;;;;;19.30;17.07;;;29.90;23.40;;;;;;5091349;28;21026;-52
2021/03/31 12:15:19;;;;;;;15.47;13.60;;;30.00;23.20;;;;;;5091375;28;20713;-53
2021/03/31 12:17:46;;;;;;;17.43;14.70;;;30.00;23.10;;;;;;5085099;28;20625;-52
2021/03/31 12:20:14;;;;;;;18.70;15.17;;;29.80;23.50;;;;;;5084371;28;20696;-54
2021/03/31 12:22:41;;;;;;;18.00;15.53;;;29.50;23.60;;;;;;5081136;28;20632;-53
2021/03/31 12:25:10;;;;;;;21.40;18.33;;;29.10;24.00;;;;;;5065331;28;20634;-53
2021/03/31 12:27:37;;;;;;;21.73;19.00;;;28.70;24.20;;;;;;5078733;28;20725;-54
2021/03/31 12:30:06;;;;;;;19.17;17.27;;;28.50;24.50;;;;;;5084076;28;20632;-53
2021/03/31 12:32:33;;;;;;;22.40;17.20;;;28.40;24.90;;;;;;5090678;28;20741;-54
2021/03/31 12:35:00;;;;;;;17.77;14.50;;;28.50;24.90;;;;;;5091021;28;20652;-53
2021/03/31 12:37:27;;;;;;;24.67;20.17;;;28.80;24.50;;;;;;5082886;28;21153;-54
2021/03/31 12:39:55;;;;;;;24.27;20.00;;;28.70;24.50;;;;;;5077493;28;21005;-52
2021/03/31 12:42:22;;;;;;;23.37;19.03;;;28.80;24.50;;;;;;5066663;28;20654;-53
2021/03/31 12:44:49;;;;;;;21.03;16.33;;;29.20;24.60;;;;;;5090173;28;20652;-54
2021/03/31 12:47:18;;;;;;;19.43;17.33;;;29.70;24.00;;;;;;5090255;28;20632;-54
2021/03/31 12:49:47;;;;;;;21.53;19.20;;;30.30;23.80;;;;;;5091033;28;21384;-54
2021/03/31 12:52:17;;;;;;;22.47;19.73;;;30.80;23.40;;;;;;5090786;28;20620;-57
2021/03/31 12:54:51;;;;;;;24.60;18.33;;;30.90;23.40;;;;;;5072460;28;20660;-53
2021/03/31 12:57:18;;;;;;;20.20;18.10;;;30.80;23.40;;;;;;5070737;28;20683;-53
2021/03/31 12:59:45;;;;;;;21.03;18.87;;;30.70;23.60;;;;;;5088674;28;20749;-53